sensor_id;sensor_type;location;lat;lon;timestamp;P1;durP1;ratioP1;P2;durP2;ratioP2
19030;SDS011;9648;51.130;13.978;2022-08-19T00:00:27;13.38;;;11.35;;
19030;SDS011;9648;51.130;13.978;2022-08-19T00:02:54;13.95;;;12.10;;
19030;SDS011;9648;51.130;13.978;2022-08-19T00:05:21;12.52;;;11.20;;
19030;SDS011;9648;51.130;13.978;2022-08-19T00:07:48;15.38;;;12.45;;
19030;SDS011;9648;51.130;13.978;2022-08-19T00:10:16;12.98;;;11.38;;
19030;SDS011;9648;51.130;13.978;2022-08-19T00:12:45;12.95;;;11.60;;
19030;SDS011;9648;51.130;13.978;2022-08-19T00:15:12;13.25;;;11.85;;
19030;SDS011;9648;51.130;13.978;2022-08-19T00:17:41;13.80;;;11.75;;
19030;SDS011;9648;51.130;13.978;2022-08-19T00:20:09;12.13;;;10.93;;
19030;SDS011;9648;51.130;13.978;2022-08-19T00:22:38;11.43;;;10.30;;
19030;SDS011;9648;51.130;13.978;2022-08-19T00:25:06;12.20;;;10.50;;
19030;SDS011;9648;51.130;13.978;2022-08-19T00:27:33;13.45;;;11.60;;
19030;SDS011;9648;51.130;13.978;2022-08-19T00:30:02;14.10;;;11.80;;
19030;SDS011;9648;51.130;13.978;2022-08-19T00:32:30;15.82;;;11.95;;
19030;SDS011;9648;51.130;13.978;2022-08-19T00:34:58;13.98;;;11.93;;
19030;SDS011;9648;51.130;13.978;2022-08-19T00:37:25;13.32;;;11.55;;
19030;SDS011;9648;51.130;13.978;2022-08-19T00:39:51;14.60;;;11.98;;
19030;SDS011;9648;51.130;13.978;2022-08-19T00:42:19;15.45;;;12.52;;
19030;SDS011;9648;51.130;13.978;2022-08-19T00:44:46;13.20;;;11.90;;
19030;SDS011;9648;51.130;13.978;2022-08-19T00:47:15;12.68;;;11.25;;
19030;SDS011;9648;51.130;13.978;2022-08-19T00:49:43;12.85;;;11.55;;
19030;SDS011;9648;51.130;13.978;2022-08-19T00:52:17;14.13;;;11.27;;
19030;SDS011;9648;51.130;13.978;2022-08-19T00:54:52;13.00;;;11.10;;
19030;SDS011;9648;51.130;13.978;2022-08-19T00:57:20;14.00;;;11.43;;
19030;SDS011;9648;51.130;13.978;2022-08-19T00:59:52;13.40;;;11.50;;
19030;SDS011;9648;51.130;13.978;2022-08-19T01:02:23;15.57;;;12.32;;
19030;SDS011;9648;51.130;13.978;2022-08-19T01:04:51;14.87;;;12.87;;
19030;SDS011;9648;51.130;13.978;2022-08-19T01:07:18;13.90;;;12.50;;
19030;SDS011;9648;51.130;13.978;2022-08-19T01:09:45;15.75;;;13.05;;
19030;SDS011;9648;51.130;13.978;2022-08-19T01:12:12;14.30;;;12.80;;
19030;SDS011;9648;51.130;13.978;2022-08-19T01:14:39;15.38;;;13.65;;
19030;SDS011;9648;51.130;13.978;2022-08-19T01:17:06;14.20;;;12.70;;
19030;SDS011;9648;51.130;13.978;2022-08-19T01:19:36;15.23;;;13.40;;
19030;SDS011;9648;51.130;13.978;2022-08-19T01:22:06;14.33;;;12.83;;
19030;SDS011;9648;51.130;13.978;2022-08-19T01:24:38;14.50;;;13.00;;
19030;SDS011;9648;51.130;13.978;2022-08-19T01:27:07;15.57;;;13.80;;
19030;SDS011;9648;51.130;13.978;2022-08-19T01:29:34;16.43;;;14.80;;
19030;SDS011;9648;51.130;13.978;2022-08-19T01:32:04;23.30;;;19.53;;
19030;SDS011;9648;51.130;13.978;2022-08-19T01:34:31;23.17;;;19.50;;
19030;SDS011;9648;51.130;13.978;2022-08-19T01:36:59;19.00;;;17.10;;
19030;SDS011;9648;51.130;13.978;2022-08-19T01:39:27;16.95;;;15.15;;
19030;SDS011;9648;51.130;13.978;2022-08-19T01:41:55;15.85;;;14.20;;
19030;SDS011;9648;51.130;13.978;2022-08-19T01:44:22;19.83;;;17.15;;
19030;SDS011;9648;51.130;13.978;2022-08-19T01:46:50;17.80;;;15.93;;
19030;SDS011;9648;51.130;13.978;2022-08-19T01:49:18;18.10;;;16.35;;
19030;SDS011;9648;51.130;13.978;2022-08-19T01:51:47;18.75;;;16.05;;
19030;SDS011;9648;51.130;13.978;2022-08-19T01:54:15;17.95;;;16.15;;
19030;SDS011;9648;51.130;13.978;2022-08-19T01:56:43;19.95;;;17.77;;
19030;SDS011;9648;51.130;13.978;2022-08-19T01:59:13;20.02;;;17.95;;
19030;SDS011;9648;51.130;13.978;2022-08-19T02:01:43;19.42;;;17.27;;
19030;SDS011;9648;51.130;13.978;2022-08-19T02:04:10;21.33;;;17.83;;
19030;SDS011;9648;51.130;13.978;2022-08-19T02:06:36;19.13;;;17.27;;
19030;SDS011;9648;51.130;13.978;2022-08-19T02:09:04;18.85;;;16.75;;
19030;SDS011;9648;51.130;13.978;2022-08-19T02:11:33;20.48;;;17.83;;
19030;SDS011;9648;51.130;13.978;2022-08-19T02:14:03;20.85;;;18.73;;
19030;SDS011;9648;51.130;13.978;2022-08-19T02:16:34;19.33;;;17.33;;
19030;SDS011;9648;51.130;13.978;2022-08-19T02:19:02;20.35;;;18.25;;
19030;SDS011;9648;51.130;13.978;2022-08-19T02:21:29;21.40;;;18.20;;
19030;SDS011;9648;51.130;13.978;2022-08-19T02:23:57;18.35;;;16.45;;
19030;SDS011;9648;51.130;13.978;2022-08-19T02:26:24;20.10;;;18.02;;
19030;SDS011;9648;51.130;13.978;2022-08-19T02:28:52;20.45;;;18.05;;
19030;SDS011;9648;51.130;13.978;2022-08-19T02:31:20;20.67;;;18.42;;
19030;SDS011;9648;51.130;13.978;2022-08-19T02:33:49;19.63;;;17.48;;
19030;SDS011;9648;51.130;13.978;2022-08-19T02:36:17;20.23;;;18.13;;
19030;SDS011;9648;51.130;13.978;2022-08-19T02:38:45;21.60;;;19.30;;
19030;SDS011;9648;51.130;13.978;2022-08-19T02:41:12;19.65;;;17.65;;
19030;SDS011;9648;51.130;13.978;2022-08-19T02:43:41;21.00;;;18.03;;
19030;SDS011;9648;51.130;13.978;2022-08-19T02:46:12;22.15;;;19.95;;
19030;SDS011;9648;51.130;13.978;2022-08-19T02:48:40;19.08;;;17.08;;
19030;SDS011;9648;51.130;13.978;2022-08-19T02:51:08;19.83;;;17.83;;
19030;SDS011;9648;51.130;13.978;2022-08-19T02:53:42;21.85;;;19.38;;
19030;SDS011;9648;51.130;13.978;2022-08-19T02:56:09;21.97;;;19.60;;
19030;SDS011;9648;51.130;13.978;2022-08-19T02:58:36;20.88;;;17.98;;
19030;SDS011;9648;51.130;13.978;2022-08-19T03:01:03;21.67;;;19.40;;
19030;SDS011;9648;51.130;13.978;2022-08-19T03:03:29;23.85;;;21.10;;
19030;SDS011;9648;51.130;13.978;2022-08-19T03:06:04;20.02;;;17.90;;
19030;SDS011;9648;51.130;13.978;2022-08-19T03:08:34;22.85;;;20.55;;
19030;SDS011;9648;51.130;13.978;2022-08-19T03:11:02;21.57;;;17.97;;
19030;SDS011;9648;51.130;13.978;2022-08-19T03:13:30;21.52;;;19.40;;
19030;SDS011;9648;51.130;13.978;2022-08-19T03:15:57;30.13;;;26.67;;
19030;SDS011;9648;51.130;13.978;2022-08-19T03:18:23;22.58;;;20.25;;
19030;SDS011;9648;51.130;13.978;2022-08-19T03:20:52;22.83;;;20.20;;
19030;SDS011;9648;51.130;13.978;2022-08-19T03:23:19;19.58;;;17.58;;
19030;SDS011;9648;51.130;13.978;2022-08-19T03:25:48;19.75;;;17.75;;
19030;SDS011;9648;51.130;13.978;2022-08-19T03:28:16;19.85;;;17.77;;
19030;SDS011;9648;51.130;13.978;2022-08-19T03:30:54;19.35;;;17.35;;
19030;SDS011;9648;51.130;13.978;2022-08-19T03:33:23;19.20;;;17.27;;
19030;SDS011;9648;51.130;13.978;2022-08-19T03:36:00;20.88;;;18.58;;
19030;SDS011;9648;51.130;13.978;2022-08-19T03:38:32;19.35;;;17.27;;
19030;SDS011;9648;51.130;13.978;2022-08-19T03:41:03;19.80;;;17.70;;
19030;SDS011;9648;51.130;13.978;2022-08-19T03:43:33;18.90;;;17.00;;
19030;SDS011;9648;51.130;13.978;2022-08-19T03:46:01;19.10;;;16.83;;
19030;SDS011;9648;51.130;13.978;2022-08-19T03:48:30;19.88;;;17.77;;
19030;SDS011;9648;51.130;13.978;2022-08-19T03:50:57;20.88;;;18.38;;
19030;SDS011;9648;51.130;13.978;2022-08-19T03:53:25;19.38;;;17.40;;
19030;SDS011;9648;51.130;13.978;2022-08-19T03:55:53;21.83;;;19.55;;
19030;SDS011;9648;51.130;13.978;2022-08-19T03:58:21;18.88;;;16.98;;
19030;SDS011;9648;51.130;13.978;2022-08-19T04:00:48;20.47;;;18.27;;
19030;SDS011;9648;51.130;13.978;2022-08-19T04:03:15;21.77;;;19.58;;
19030;SDS011;9648;51.130;13.978;2022-08-19T04:05:43;22.30;;;20.00;;
19030;SDS011;9648;51.130;13.978;2022-08-19T04:08:10;21.02;;;19.00;;
19030;SDS011;9648;51.130;13.978;2022-08-19T04:10:37;22.17;;;19.98;;
19030;SDS011;9648;51.130;13.978;2022-08-19T04:13:05;23.67;;;21.17;;
19030;SDS011;9648;51.130;13.978;2022-08-19T04:15:38;22.90;;;20.53;;
19030;SDS011;9648;51.130;13.978;2022-08-19T04:18:06;23.85;;;21.25;;
19030;SDS011;9648;51.130;13.978;2022-08-19T04:20:38;22.60;;;20.30;;
19030;SDS011;9648;51.130;13.978;2022-08-19T04:23:05;23.52;;;21.02;;
19030;SDS011;9648;51.130;13.978;2022-08-19T04:25:34;24.67;;;21.90;;
19030;SDS011;9648;51.130;13.978;2022-08-19T04:28:02;23.42;;;20.88;;
19030;SDS011;9648;51.130;13.978;2022-08-19T04:30:29;26.08;;;23.38;;
19030;SDS011;9648;51.130;13.978;2022-08-19T04:32:57;23.02;;;20.58;;
19030;SDS011;9648;51.130;13.978;2022-08-19T04:35:24;21.67;;;19.47;;
19030;SDS011;9648;51.130;13.978;2022-08-19T04:37:50;25.00;;;21.27;;
19030;SDS011;9648;51.130;13.978;2022-08-19T04:40:17;26.77;;;21.88;;
19030;SDS011;9648;51.130;13.978;2022-08-19T04:43:01;26.63;;;23.77;;
19030;SDS011;9648;51.130;13.978;2022-08-19T04:45:28;25.40;;;22.80;;
19030;SDS011;9648;51.130;13.978;2022-08-19T04:47:56;25.70;;;23.08;;
19030;SDS011;9648;51.130;13.978;2022-08-19T04:50:23;26.75;;;23.88;;
19030;SDS011;9648;51.130;13.978;2022-08-19T04:52:50;26.52;;;23.63;;
19030;SDS011;9648;51.130;13.978;2022-08-19T04:55:18;25.05;;;22.42;;
19030;SDS011;9648;51.130;13.978;2022-08-19T04:57:44;26.17;;;23.40;;
19030;SDS011;9648;51.130;13.978;2022-08-19T05:00:11;23.33;;;20.95;;
19030;SDS011;9648;51.130;13.978;2022-08-19T05:02:39;25.08;;;22.52;;
19030;SDS011;9648;51.130;13.978;2022-08-19T05:05:07;25.15;;;22.55;;
19030;SDS011;9648;51.130;13.978;2022-08-19T05:07:34;25.17;;;22.63;;
19030;SDS011;9648;51.130;13.978;2022-08-19T05:10:02;21.77;;;19.57;;
19030;SDS011;9648;51.130;13.978;2022-08-19T05:12:29;23.33;;;20.90;;
19030;SDS011;9648;51.130;13.978;2022-08-19T05:14:56;25.23;;;22.58;;
19030;SDS011;9648;51.130;13.978;2022-08-19T05:17:23;24.33;;;21.75;;
19030;SDS011;9648;51.130;13.978;2022-08-19T05:19:50;24.87;;;22.33;;
19030;SDS011;9648;51.130;13.978;2022-08-19T05:22:35;24.83;;;22.33;;
19030;SDS011;9648;51.130;13.978;2022-08-19T05:25:05;30.65;;;26.13;;
19030;SDS011;9648;51.130;13.978;2022-08-19T05:27:34;27.80;;;24.67;;
19030;SDS011;9648;51.130;13.978;2022-08-19T05:30:01;26.02;;;23.42;;
19030;SDS011;9648;51.130;13.978;2022-08-19T05:32:27;25.90;;;23.27;;
19030;SDS011;9648;51.130;13.978;2022-08-19T05:34:54;26.47;;;23.60;;
19030;SDS011;9648;51.130;13.978;2022-08-19T05:37:21;27.73;;;24.85;;
19030;SDS011;9648;51.130;13.978;2022-08-19T05:39:49;25.10;;;22.60;;
19030;SDS011;9648;51.130;13.978;2022-08-19T05:42:16;27.33;;;24.40;;
19030;SDS011;9648;51.130;13.978;2022-08-19T05:44:45;27.85;;;24.75;;
19030;SDS011;9648;51.130;13.978;2022-08-19T05:47:14;29.23;;;25.15;;
19030;SDS011;9648;51.130;13.978;2022-08-19T05:49:42;29.67;;;24.73;;
19030;SDS011;9648;51.130;13.978;2022-08-19T05:52:10;31.02;;;26.00;;
19030;SDS011;9648;51.130;13.978;2022-08-19T05:54:40;28.02;;;24.98;;
19030;SDS011;9648;51.130;13.978;2022-08-19T05:57:09;28.88;;;25.70;;
19030;SDS011;9648;51.130;13.978;2022-08-19T05:59:36;27.70;;;24.70;;
19030;SDS011;9648;51.130;13.978;2022-08-19T06:02:03;29.73;;;26.60;;
19030;SDS011;9648;51.130;13.978;2022-08-19T06:04:31;26.75;;;23.88;;
19030;SDS011;9648;51.130;13.978;2022-08-19T06:06:58;29.33;;;26.13;;
19030;SDS011;9648;51.130;13.978;2022-08-19T06:09:26;28.05;;;24.80;;
19030;SDS011;9648;51.130;13.978;2022-08-19T06:11:53;33.90;;;25.60;;
19030;SDS011;9648;51.130;13.978;2022-08-19T06:14:27;33.83;;;27.70;;
19030;SDS011;9648;51.130;13.978;2022-08-19T06:16:54;29.13;;;24.80;;
19030;SDS011;9648;51.130;13.978;2022-08-19T06:19:25;33.78;;;27.55;;
19030;SDS011;9648;51.130;13.978;2022-08-19T06:21:54;31.80;;;27.27;;
19030;SDS011;9648;51.130;13.978;2022-08-19T06:24:23;32.55;;;28.33;;
19030;SDS011;9648;51.130;13.978;2022-08-19T06:26:51;34.60;;;28.95;;
19030;SDS011;9648;51.130;13.978;2022-08-19T06:29:20;32.90;;;27.45;;
19030;SDS011;9648;51.130;13.978;2022-08-19T06:31:50;32.43;;;27.40;;
19030;SDS011;9648;51.130;13.978;2022-08-19T06:34:21;28.10;;;24.93;;
19030;SDS011;9648;51.130;13.978;2022-08-19T06:36:49;28.98;;;25.63;;
19030;SDS011;9648;51.130;13.978;2022-08-19T06:39:19;28.80;;;24.83;;
19030;SDS011;9648;51.130;13.978;2022-08-19T06:41:48;30.48;;;26.17;;
19030;SDS011;9648;51.130;13.978;2022-08-19T06:44:17;27.90;;;23.63;;
19030;SDS011;9648;51.130;13.978;2022-08-19T06:46:45;27.17;;;24.02;;
19030;SDS011;9648;51.130;13.978;2022-08-19T06:49:15;27.35;;;24.23;;
19030;SDS011;9648;51.130;13.978;2022-08-19T06:51:44;26.63;;;23.75;;
19030;SDS011;9648;51.130;13.978;2022-08-19T06:54:12;23.20;;;20.70;;
19030;SDS011;9648;51.130;13.978;2022-08-19T06:56:40;24.02;;;21.27;;
19030;SDS011;9648;51.130;13.978;2022-08-19T06:59:10;21.85;;;19.55;;
19030;SDS011;9648;51.130;13.978;2022-08-19T07:01:40;20.33;;;18.02;;
19030;SDS011;9648;51.130;13.978;2022-08-19T07:04:07;20.38;;;18.23;;
19030;SDS011;9648;51.130;13.978;2022-08-19T07:06:36;19.40;;;17.40;;
19030;SDS011;9648;51.130;13.978;2022-08-19T07:09:03;20.42;;;18.30;;
19030;SDS011;9648;51.130;13.978;2022-08-19T07:11:31;19.45;;;17.50;;
19030;SDS011;9648;51.130;13.978;2022-08-19T07:13:58;19.92;;;18.00;;
19030;SDS011;9648;51.130;13.978;2022-08-19T07:16:25;20.13;;;18.02;;
19030;SDS011;9648;51.130;13.978;2022-08-19T07:18:52;21.70;;;19.02;;
19030;SDS011;9648;51.130;13.978;2022-08-19T07:21:21;20.35;;;18.17;;
19030;SDS011;9648;51.130;13.978;2022-08-19T07:23:52;20.95;;;18.75;;
19030;SDS011;9648;51.130;13.978;2022-08-19T07:26:21;21.60;;;19.30;;
19030;SDS011;9648;51.130;13.978;2022-08-19T07:28:49;21.17;;;18.92;;
19030;SDS011;9648;51.130;13.978;2022-08-19T07:31:17;20.02;;;17.92;;
19030;SDS011;9648;51.130;13.978;2022-08-19T07:33:45;22.42;;;19.25;;
19030;SDS011;9648;51.130;13.978;2022-08-19T07:36:14;22.73;;;19.85;;
19030;SDS011;9648;51.130;13.978;2022-08-19T07:38:44;18.30;;;16.50;;
19030;SDS011;9648;51.130;13.978;2022-08-19T07:41:17;19.35;;;17.35;;
19030;SDS011;9648;51.130;13.978;2022-08-19T07:43:45;19.42;;;17.42;;
19030;SDS011;9648;51.130;13.978;2022-08-19T07:46:13;23.73;;;21.13;;
19030;SDS011;9648;51.130;13.978;2022-08-19T07:48:40;23.25;;;20.75;;
19030;SDS011;9648;51.130;13.978;2022-08-19T07:51:09;22.58;;;20.17;;
19030;SDS011;9648;51.130;13.978;2022-08-19T07:53:37;22.50;;;19.83;;
19030;SDS011;9648;51.130;13.978;2022-08-19T07:56:04;20.88;;;18.63;;
19030;SDS011;9648;51.130;13.978;2022-08-19T07:58:33;23.30;;;20.90;;
19030;SDS011;9648;51.130;13.978;2022-08-19T08:01:03;22.83;;;20.52;;
19030;SDS011;9648;51.130;13.978;2022-08-19T08:03:30;22.52;;;19.42;;
19030;SDS011;9648;51.130;13.978;2022-08-19T08:06:15;20.93;;;18.83;;
19030;SDS011;9648;51.130;13.978;2022-08-19T08:09:00;21.40;;;19.17;;
19030;SDS011;9648;51.130;13.978;2022-08-19T08:11:47;19.80;;;17.70;;
19030;SDS011;9648;51.130;13.978;2022-08-19T08:14:17;20.95;;;18.80;;
19030;SDS011;9648;51.130;13.978;2022-08-19T08:16:46;21.08;;;18.77;;
19030;SDS011;9648;51.130;13.978;2022-08-19T08:19:16;22.20;;;19.90;;
19030;SDS011;9648;51.130;13.978;2022-08-19T08:21:43;20.42;;;18.33;;
19030;SDS011;9648;51.130;13.978;2022-08-19T08:24:10;22.07;;;19.67;;
19030;SDS011;9648;51.130;13.978;2022-08-19T08:26:37;19.27;;;17.10;;
19030;SDS011;9648;51.130;13.978;2022-08-19T08:29:04;21.75;;;19.50;;
19030;SDS011;9648;51.130;13.978;2022-08-19T08:31:33;25.67;;;21.48;;
19030;SDS011;9648;51.130;13.978;2022-08-19T08:34:00;21.37;;;19.17;;
19030;SDS011;9648;51.130;13.978;2022-08-19T08:36:27;21.80;;;19.50;;
19030;SDS011;9648;51.130;13.978;2022-08-19T08:38:54;24.63;;;21.43;;
19030;SDS011;9648;51.130;13.978;2022-08-19T08:41:22;24.77;;;21.50;;
19030;SDS011;9648;51.130;13.978;2022-08-19T08:43:57;22.02;;;18.50;;
19030;SDS011;9648;51.130;13.978;2022-08-19T08:46:25;21.50;;;18.30;;
19030;SDS011;9648;51.130;13.978;2022-08-19T08:48:59;19.90;;;17.77;;
19030;SDS011;9648;51.130;13.978;2022-08-19T08:51:32;18.90;;;15.98;;
19030;SDS011;9648;51.130;13.978;2022-08-19T08:54:02;19.30;;;17.25;;
19030;SDS011;9648;51.130;13.978;2022-08-19T08:56:32;21.27;;;19.03;;
19030;SDS011;9648;51.130;13.978;2022-08-19T08:59:00;18.33;;;16.42;;
19030;SDS011;9648;51.130;13.978;2022-08-19T09:01:31;16.95;;;15.25;;
19030;SDS011;9648;51.130;13.978;2022-08-19T09:04:00;21.58;;;17.90;;
19030;SDS011;9648;51.130;13.978;2022-08-19T09:06:32;19.70;;;17.55;;
19030;SDS011;9648;51.130;13.978;2022-08-19T09:09:05;19.10;;;17.10;;
19030;SDS011;9648;51.130;13.978;2022-08-19T09:11:44;21.45;;;18.67;;
19030;SDS011;9648;51.130;13.978;2022-08-19T09:14:32;18.35;;;16.42;;
19030;SDS011;9648;51.130;13.978;2022-08-19T09:17:02;18.30;;;16.23;;
19030;SDS011;9648;51.130;13.978;2022-08-19T09:19:34;19.70;;;17.60;;
19030;SDS011;9648;51.130;13.978;2022-08-19T09:22:02;17.58;;;15.77;;
19030;SDS011;9648;51.130;13.978;2022-08-19T09:24:30;16.77;;;14.85;;
19030;SDS011;9648;51.130;13.978;2022-08-19T09:26:56;20.75;;;17.52;;
19030;SDS011;9648;51.130;13.978;2022-08-19T09:29:23;18.53;;;16.63;;
19030;SDS011;9648;51.130;13.978;2022-08-19T09:31:50;18.63;;;16.73;;
19030;SDS011;9648;51.130;13.978;2022-08-19T09:34:17;17.52;;;15.73;;
19030;SDS011;9648;51.130;13.978;2022-08-19T09:36:46;16.80;;;14.88;;
19030;SDS011;9648;51.130;13.978;2022-08-19T09:39:14;16.23;;;14.50;;
19030;SDS011;9648;51.130;13.978;2022-08-19T09:41:41;17.00;;;15.23;;
19030;SDS011;9648;51.130;13.978;2022-08-19T09:44:07;17.55;;;15.75;;
19030;SDS011;9648;51.130;13.978;2022-08-19T09:46:37;16.80;;;14.80;;
19030;SDS011;9648;51.130;13.978;2022-08-19T09:49:04;16.58;;;14.82;;
19030;SDS011;9648;51.130;13.978;2022-08-19T09:51:31;16.67;;;15.07;;
19030;SDS011;9648;51.130;13.978;2022-08-19T09:54:00;17.13;;;15.43;;
19030;SDS011;9648;51.130;13.978;2022-08-19T09:56:28;15.98;;;14.38;;
19030;SDS011;9648;51.130;13.978;2022-08-19T09:58:57;13.93;;;12.53;;
19030;SDS011;9648;51.130;13.978;2022-08-19T10:01:25;16.58;;;14.88;;
19030;SDS011;9648;51.130;13.978;2022-08-19T10:03:55;16.17;;;14.48;;
19030;SDS011;9648;51.130;13.978;2022-08-19T10:06:24;15.97;;;14.37;;
19030;SDS011;9648;51.130;13.978;2022-08-19T10:08:54;15.98;;;14.27;;
19030;SDS011;9648;51.130;13.978;2022-08-19T10:11:22;13.67;;;12.27;;
19030;SDS011;9648;51.130;13.978;2022-08-19T10:13:49;11.70;;;10.60;;
19030;SDS011;9648;51.130;13.978;2022-08-19T10:16:17;13.13;;;11.77;;
19030;SDS011;9648;51.130;13.978;2022-08-19T10:18:48;11.55;;;10.35;;
19030;SDS011;9648;51.130;13.978;2022-08-19T10:21:16;12.13;;;10.93;;
19030;SDS011;9648;51.130;13.978;2022-08-19T10:23:45;12.43;;;11.23;;
19030;SDS011;9648;51.130;13.978;2022-08-19T10:26:14;13.50;;;12.20;;
19030;SDS011;9648;51.130;13.978;2022-08-19T10:28:44;13.27;;;11.70;;
19030;SDS011;9648;51.130;13.978;2022-08-19T10:31:12;14.43;;;12.32;;
19030;SDS011;9648;51.130;13.978;2022-08-19T10:33:42;14.82;;;13.27;;
19030;SDS011;9648;51.130;13.978;2022-08-19T10:36:10;13.32;;;12.02;;
19030;SDS011;9648;51.130;13.978;2022-08-19T10:38:40;13.63;;;12.23;;
19030;SDS011;9648;51.130;13.978;2022-08-19T10:41:08;15.07;;;13.52;;
19030;SDS011;9648;51.130;13.978;2022-08-19T10:43:36;15.05;;;13.45;;
19030;SDS011;9648;51.130;13.978;2022-08-19T10:46:06;14.20;;;12.70;;
19030;SDS011;9648;51.130;13.978;2022-08-19T10:48:34;15.80;;;14.20;;
19030;SDS011;9648;51.130;13.978;2022-08-19T10:51:01;14.70;;;13.25;;
19030;SDS011;9648;51.130;13.978;2022-08-19T10:53:51;16.90;;;15.15;;
19030;SDS011;9648;51.130;13.978;2022-08-19T10:56:18;18.08;;;15.93;;
19030;SDS011;9648;51.130;13.978;2022-08-19T10:59:03;16.67;;;14.88;;
19030;SDS011;9648;51.130;13.978;2022-08-19T11:01:32;16.80;;;15.00;;
19030;SDS011;9648;51.130;13.978;2022-08-19T11:04:00;18.10;;;15.20;;
19030;SDS011;9648;51.130;13.978;2022-08-19T11:06:28;15.98;;;14.48;;
19030;SDS011;9648;51.130;13.978;2022-08-19T11:08:56;14.40;;;13.00;;
19030;SDS011;9648;51.130;13.978;2022-08-19T11:11:25;16.83;;;15.05;;
19030;SDS011;9648;51.130;13.978;2022-08-19T11:13:53;15.30;;;13.80;;
19030;SDS011;9648;51.130;13.978;2022-08-19T11:16:20;19.98;;;14.32;;
19030;SDS011;9648;51.130;13.978;2022-08-19T11:18:51;15.90;;;13.73;;
19030;SDS011;9648;51.130;13.978;2022-08-19T11:21:21;15.93;;;14.32;;
19030;SDS011;9648;51.130;13.978;2022-08-19T11:23:50;20.35;;;13.25;;
19030;SDS011;9648;51.130;13.978;2022-08-19T11:26:18;17.93;;;13.73;;
19030;SDS011;9648;51.130;13.978;2022-08-19T11:28:47;15.32;;;13.82;;
19030;SDS011;9648;51.130;13.978;2022-08-19T11:31:17;15.60;;;13.77;;
19030;SDS011;9648;51.130;13.978;2022-08-19T11:33:45;14.93;;;13.37;;
19030;SDS011;9648;51.130;13.978;2022-08-19T11:36:17;16.55;;;14.82;;
19030;SDS011;9648;51.130;13.978;2022-08-19T11:38:45;14.85;;;13.38;;
19030;SDS011;9648;51.130;13.978;2022-08-19T11:41:13;15.50;;;13.90;;
19030;SDS011;9648;51.130;13.978;2022-08-19T11:43:41;18.10;;;16.23;;
19030;SDS011;9648;51.130;13.978;2022-08-19T11:46:10;16.52;;;14.93;;
19030;SDS011;9648;51.130;13.978;2022-08-19T11:48:38;16.50;;;14.80;;
19030;SDS011;9648;51.130;13.978;2022-08-19T11:51:06;15.73;;;14.13;;
19030;SDS011;9648;51.130;13.978;2022-08-19T11:53:36;17.30;;;15.40;;
19030;SDS011;9648;51.130;13.978;2022-08-19T11:56:03;17.05;;;15.25;;
19030;SDS011;9648;51.130;13.978;2022-08-19T11:58:30;14.60;;;13.20;;
19030;SDS011;9648;51.130;13.978;2022-08-19T12:00:57;14.73;;;13.32;;
19030;SDS011;9648;51.130;13.978;2022-08-19T12:03:24;14.38;;;12.88;;
19030;SDS011;9648;51.130;13.978;2022-08-19T12:05:51;18.73;;;16.02;;
19030;SDS011;9648;51.130;13.978;2022-08-19T12:08:18;18.00;;;16.10;;
19030;SDS011;9648;51.130;13.978;2022-08-19T12:10:46;17.40;;;15.60;;
19030;SDS011;9648;51.130;13.978;2022-08-19T12:13:13;14.90;;;13.38;;
19030;SDS011;9648;51.130;13.978;2022-08-19T12:15:44;17.38;;;15.57;;
19030;SDS011;9648;51.130;13.978;2022-08-19T12:18:12;16.50;;;14.88;;
19030;SDS011;9648;51.130;13.978;2022-08-19T12:20:40;17.00;;;15.00;;
19030;SDS011;9648;51.130;13.978;2022-08-19T12:23:08;16.35;;;14.75;;
19030;SDS011;9648;51.130;13.978;2022-08-19T12:25:36;16.73;;;14.75;;
19030;SDS011;9648;51.130;13.978;2022-08-19T12:28:04;16.05;;;14.45;;
19030;SDS011;9648;51.130;13.978;2022-08-19T12:30:31;18.03;;;16.13;;
19030;SDS011;9648;51.130;13.978;2022-08-19T12:32:58;17.13;;;15.32;;
19030;SDS011;9648;51.130;13.978;2022-08-19T12:35:24;16.77;;;15.10;;
19030;SDS011;9648;51.130;13.978;2022-08-19T12:37:51;22.23;;;18.55;;
19030;SDS011;9648;51.130;13.978;2022-08-19T12:40:18;20.23;;;18.05;;
19030;SDS011;9648;51.130;13.978;2022-08-19T12:42:45;16.63;;;15.02;;
19030;SDS011;9648;51.130;13.978;2022-08-19T12:45:13;20.20;;;17.55;;
19030;SDS011;9648;51.130;13.978;2022-08-19T12:47:39;21.67;;;18.50;;
19030;SDS011;9648;51.130;13.978;2022-08-19T12:50:06;24.20;;;20.70;;
19030;SDS011;9648;51.130;13.978;2022-08-19T12:52:34;27.77;;;23.17;;
19030;SDS011;9648;51.130;13.978;2022-08-19T12:55:03;26.40;;;23.27;;
19030;SDS011;9648;51.130;13.978;2022-08-19T12:57:32;26.42;;;21.75;;
19030;SDS011;9648;51.130;13.978;2022-08-19T13:00:01;26.35;;;22.45;;
19030;SDS011;9648;51.130;13.978;2022-08-19T13:02:33;23.13;;;20.63;;
19030;SDS011;9648;51.130;13.978;2022-08-19T13:05:01;24.10;;;20.85;;
19030;SDS011;9648;51.130;13.978;2022-08-19T13:07:28;25.95;;;21.65;;
19030;SDS011;9648;51.130;13.978;2022-08-19T13:09:55;27.65;;;22.13;;
19030;SDS011;9648;51.130;13.978;2022-08-19T13:12:22;22.10;;;19.27;;
19030;SDS011;9648;51.130;13.978;2022-08-19T13:14:51;24.75;;;20.48;;
19030;SDS011;9648;51.130;13.978;2022-08-19T13:17:18;24.17;;;20.60;;
19030;SDS011;9648;51.130;13.978;2022-08-19T13:19:47;25.52;;;21.98;;
19030;SDS011;9648;51.130;13.978;2022-08-19T13:22:14;32.10;;;26.08;;
19030;SDS011;9648;51.130;13.978;2022-08-19T13:24:40;35.95;;;28.60;;
19030;SDS011;9648;51.130;13.978;2022-08-19T13:27:08;34.30;;;27.38;;
19030;SDS011;9648;51.130;13.978;2022-08-19T13:29:35;37.00;;;28.38;;
19030;SDS011;9648;51.130;13.978;2022-08-19T13:32:19;39.13;;;29.00;;
19030;SDS011;9648;51.130;13.978;2022-08-19T13:35:05;32.17;;;25.65;;
19030;SDS011;9648;51.130;13.978;2022-08-19T13:37:32;33.95;;;25.48;;
19030;SDS011;9648;51.130;13.978;2022-08-19T13:40:08;33.55;;;25.98;;
19030;SDS011;9648;51.130;13.978;2022-08-19T13:42:37;28.40;;;22.73;;
19030;SDS011;9648;51.130;13.978;2022-08-19T13:45:04;33.40;;;26.60;;
19030;SDS011;9648;51.130;13.978;2022-08-19T13:47:32;24.10;;;20.23;;
19030;SDS011;9648;51.130;13.978;2022-08-19T13:50:00;30.58;;;24.23;;
19030;SDS011;9648;51.130;13.978;2022-08-19T13:52:29;24.77;;;21.00;;
19030;SDS011;9648;51.130;13.978;2022-08-19T13:54:56;28.48;;;23.73;;
19030;SDS011;9648;51.130;13.978;2022-08-19T13:57:23;29.93;;;23.50;;
19030;SDS011;9648;51.130;13.978;2022-08-19T13:59:50;23.27;;;19.92;;
19030;SDS011;9648;51.130;13.978;2022-08-19T14:02:17;31.10;;;24.83;;
19030;SDS011;9648;51.130;13.978;2022-08-19T14:04:44;25.77;;;21.42;;
19030;SDS011;9648;51.130;13.978;2022-08-19T14:07:10;28.33;;;22.90;;
19030;SDS011;9648;51.130;13.978;2022-08-19T14:09:39;25.55;;;21.23;;
19030;SDS011;9648;51.130;13.978;2022-08-19T14:12:06;26.55;;;22.38;;
19030;SDS011;9648;51.130;13.978;2022-08-19T14:14:35;28.42;;;24.08;;
19030;SDS011;9648;51.130;13.978;2022-08-19T14:17:05;29.43;;;23.73;;
19030;SDS011;9648;51.130;13.978;2022-08-19T14:19:32;27.80;;;23.10;;
19030;SDS011;9648;51.130;13.978;2022-08-19T14:21:59;28.60;;;23.92;;
19030;SDS011;9648;51.130;13.978;2022-08-19T14:24:26;27.90;;;24.03;;
19030;SDS011;9648;51.130;13.978;2022-08-19T14:26:54;26.60;;;22.17;;
19030;SDS011;9648;51.130;13.978;2022-08-19T14:29:23;26.25;;;22.48;;